sensor_id;sensor_type;location;lat;lon;timestamp;pressure;altitude;pressure_sealevel;temperature;humidity
63739;BME280;68816;45.558;10.070;2024-02-04T00:01:19;100720.13;;;8.19;92.32
63739;BME280;68816;45.558;10.070;2024-02-04T00:03:45;100719.69;;;8.22;92.27
63739;BME280;68816;45.558;10.070;2024-02-04T00:06:10;100725.97;;;8.03;92.42
63739;BME280;68816;45.558;10.070;2024-02-04T00:08:36;100717.53;;;8.11;92.45
63739;BME280;68816;45.558;10.070;2024-02-04T00:11:02;100709.06;;;8.12;92.61
63739;BME280;68816;45.558;10.070;2024-02-04T00:13:30;100705.66;;;8.10;92.47
63739;BME280;68816;45.558;10.070;2024-02-04T00:15:55;100716.91;;;8.15;92.01
63739;BME280;68816;45.558;10.070;2024-02-04T00:18:23;100702.88;;;8.04;93.10
63739;BME280;68816;45.558;10.070;2024-02-04T00:20:49;100708.88;;;8.14;92.81
63739;BME280;68816;45.558;10.070;2024-02-04T00:23:14;100698.19;;;7.98;93.13
63739;BME280;68816;45.558;10.070;2024-02-04T00:25:40;100697.13;;;7.99;93.05
63739;BME280;68816;45.558;10.070;2024-02-04T00:28:07;100709.06;;;8.12;92.97
63739;BME280;68816;45.558;10.070;2024-02-04T00:30:32;100704.56;;;8.05;93.37
63739;BME280;68816;45.558;10.070;2024-02-04T00:32:58;100704.53;;;7.98;93.50
63739;BME280;68816;45.558;10.070;2024-02-04T00:35:28;100691.03;;;8.10;92.74
63739;BME280;68816;45.558;10.070;2024-02-04T00:37:53;100701.81;;;8.05;93.09
63739;BME280;68816;45.558;10.070;2024-02-04T00:40:19;100701.69;;;7.78;94.39
63739;BME280;68816;45.558;10.070;2024-02-04T00:42:44;100685.34;;;7.77;95.33
63739;BME280;68816;45.558;10.070;2024-02-04T00:45:10;100699.00;;;7.92;94.56
63739;BME280;68816;45.558;10.070;2024-02-04T00:47:36;100697.94;;;7.93;93.85
63739;BME280;68816;45.558;10.070;2024-02-04T00:50:01;100705.31;;;7.86;93.99
63739;BME280;68816;45.558;10.070;2024-02-04T00:52:27;100692.84;;;7.90;93.32
63739;BME280;68816;45.558;10.070;2024-02-04T00:54:52;100701.72;;;7.85;94.06
63739;BME280;68816;45.558;10.070;2024-02-04T00:57:18;100698.81;;;7.65;94.35
63739;BME280;68816;45.558;10.070;2024-02-04T00:59:43;100698.03;;;7.71;94.58
63739;BME280;68816;45.558;10.070;2024-02-04T01:02:09;100696.50;;;7.62;94.90
63739;BME280;68816;45.558;10.070;2024-02-04T01:04:34;100701.34;;;7.60;94.52
63739;BME280;68816;45.558;10.070;2024-02-04T01:07:00;100694.31;;;7.51;95.69
63739;BME280;68816;45.558;10.070;2024-02-04T01:09:25;100693.03;;;7.54;95.06
63739;BME280;68816;45.558;10.070;2024-02-04T01:11:51;100705.84;;;7.68;94.65
63739;BME280;68816;45.558;10.070;2024-02-04T01:14:18;100702.91;;;7.76;94.52
63739;BME280;68816;45.558;10.070;2024-02-04T01:16:43;100691.78;;;7.56;95.49
63739;BME280;68816;45.558;10.070;2024-02-04T01:19:09;100702.00;;;7.62;95.10
63739;BME280;68816;45.558;10.070;2024-02-04T01:21:35;100711.91;;;7.57;95.22
63739;BME280;68816;45.558;10.070;2024-02-04T01:24:00;100701.19;;;7.68;94.99
63739;BME280;68816;45.558;10.070;2024-02-04T01:26:26;100692.28;;;7.66;94.92
63739;BME280;68816;45.558;10.070;2024-02-04T01:28:51;100700.03;;;7.56;95.42
63739;BME280;68816;45.558;10.070;2024-02-04T01:31:17;100686.78;;;7.66;95.20
63739;BME280;68816;45.558;10.070;2024-02-04T01:33:42;100680.59;;;7.64;94.52
63739;BME280;68816;45.558;10.070;2024-02-04T01:36:08;100684.91;;;7.46;95.85
63739;BME280;68816;45.558;10.070;2024-02-04T01:38:33;100707.78;;;7.46;96.01
63739;BME280;68816;45.558;10.070;2024-02-04T01:40:59;100706.94;;;7.46;96.24
63739;BME280;68816;45.558;10.070;2024-02-04T01:43:24;100691.75;;;7.50;96.40
63739;BME280;68816;45.558;10.070;2024-02-04T01:45:50;100695.41;;;7.63;95.76
63739;BME280;68816;45.558;10.070;2024-02-04T01:48:19;100702.56;;;7.51;95.97
63739;BME280;68816;45.558;10.070;2024-02-04T01:54:10;100685.19;;;7.51;95.35
63739;BME280;68816;45.558;10.070;2024-02-04T01:56:36;100686.25;;;7.50;95.94
63739;BME280;68816;45.558;10.070;2024-02-04T01:59:02;100686.88;;;7.24;97.42
63739;BME280;68816;45.558;10.070;2024-02-04T02:01:28;100680.19;;;7.33;97.14
63739;BME280;68816;45.558;10.070;2024-02-04T02:03:53;100679.38;;;7.39;97.17
63739;BME280;68816;45.558;10.070;2024-02-04T02:06:19;100670.59;;;7.29;96.62
63739;BME280;68816;45.558;10.070;2024-02-04T02:08:45;100681.47;;;7.37;97.02
63739;BME280;68816;45.558;10.070;2024-02-04T02:11:27;100682.38;;;7.44;96.37
63739;BME280;68816;45.558;10.070;2024-02-04T02:14:00;100694.38;;;7.36;96.21
63739;BME280;68816;45.558;10.070;2024-02-04T02:16:29;100690.94;;;7.28;95.98
63739;BME280;68816;45.558;10.070;2024-02-04T02:19:05;100689.06;;;7.35;96.64
63739;BME280;68816;45.558;10.070;2024-02-04T02:26:50;100675.31;;;7.35;96.03
63739;BME280;68816;45.558;10.070;2024-02-04T02:29:15;100681.72;;;7.42;95.49
63739;BME280;68816;45.558;10.070;2024-02-04T02:31:42;100679.72;;;7.29;96.08
63739;BME280;68816;45.558;10.070;2024-02-04T02:34:09;100692.47;;;7.37;95.47
63739;BME280;68816;45.558;10.070;2024-02-04T02:36:44;100703.13;;;7.19;96.17
63739;BME280;68816;45.558;10.070;2024-02-04T02:39:26;100701.72;;;7.29;96.27
63739;BME280;68816;45.558;10.070;2024-02-04T02:41:57;100696.56;;;7.20;95.95
63739;BME280;68816;45.558;10.070;2024-02-04T02:44:28;100709.28;;;7.21;95.22
63739;BME280;68816;45.558;10.070;2024-02-04T02:46:58;100707.13;;;7.16;95.50
63739;BME280;68816;45.558;10.070;2024-02-04T02:49:25;100699.00;;;7.08;96.70
63739;BME280;68816;45.558;10.070;2024-02-04T02:51:51;100703.78;;;7.21;95.65
63739;BME280;68816;45.558;10.070;2024-02-04T02:54:18;100693.75;;;7.13;95.86
63739;BME280;68816;45.558;10.070;2024-02-04T02:56:43;100691.53;;;7.02;96.68
63739;BME280;68816;45.558;10.070;2024-02-04T02:59:09;100685.94;;;7.17;95.91
63739;BME280;68816;45.558;10.070;2024-02-04T03:01:39;100686.03;;;7.02;95.62
63739;BME280;68816;45.558;10.070;2024-02-04T03:04:04;100695.94;;;6.96;95.71
63739;BME280;68816;45.558;10.070;2024-02-04T03:06:30;100697.50;;;6.84;96.46
63739;BME280;68816;45.558;10.070;2024-02-04T03:08:58;100686.09;;;6.87;97.00
63739;BME280;68816;45.558;10.070;2024-02-04T03:11:24;100677.06;;;6.93;96.42
63739;BME280;68816;45.558;10.070;2024-02-04T03:13:49;100687.28;;;6.99;96.15
63739;BME280;68816;45.558;10.070;2024-02-04T03:16:16;100688.81;;;6.81;96.68
63739;BME280;68816;45.558;10.070;2024-02-04T03:18:42;100678.25;;;6.84;96.87
63739;BME280;68816;45.558;10.070;2024-02-04T03:21:15;100671.41;;;6.74;97.01
63739;BME280;68816;45.558;10.070;2024-02-04T03:23:42;100669.94;;;6.78;96.96
63739;BME280;68816;45.558;10.070;2024-02-04T03:26:08;100665.94;;;6.59;98.10
63739;BME280;68816;45.558;10.070;2024-02-04T03:28:35;100657.59;;;6.67;97.57
63739;BME280;68816;45.558;10.070;2024-02-04T03:31:00;100652.22;;;6.80;97.26
63739;BME280;68816;45.558;10.070;2024-02-04T03:33:26;100663.59;;;6.77;96.82
63739;BME280;68816;45.558;10.070;2024-02-04T03:35:52;100667.78;;;6.52;96.66
63739;BME280;68816;45.558;10.070;2024-02-04T03:38:17;100659.59;;;6.58;96.38
63739;BME280;68816;45.558;10.070;2024-02-04T03:40:43;100666.69;;;6.46;96.47
63739;BME280;68816;45.558;10.070;2024-02-04T03:43:10;100663.19;;;6.38;97.32
63739;BME280;68816;45.558;10.070;2024-02-04T03:45:36;100657.78;;;6.30;97.35
63739;BME280;68816;45.558;10.070;2024-02-04T03:48:02;100659.06;;;6.48;96.49
63739;BME280;68816;45.558;10.070;2024-02-04T03:50:29;100653.38;;;6.29;97.30
63739;BME280;68816;45.558;10.070;2024-02-04T03:52:54;100650.84;;;6.12;98.58
63739;BME280;68816;45.558;10.070;2024-02-04T03:55:20;100650.72;;;6.21;97.78
63739;BME280;68816;45.558;10.070;2024-02-04T03:57:46;100647.81;;;6.07;98.22
63739;BME280;68816;45.558;10.070;2024-02-04T04:00:12;100658.84;;;5.93;98.97
63739;BME280;68816;45.558;10.070;2024-02-04T04:02:37;100655.41;;;6.05;98.00
63739;BME280;68816;45.558;10.070;2024-02-04T04:05:03;100664.78;;;5.96;97.64
63739;BME280;68816;45.558;10.070;2024-02-04T04:07:30;100666.69;;;5.96;98.08
63739;BME280;68816;45.558;10.070;2024-02-04T04:09:56;100654.66;;;5.97;97.80
63739;BME280;68816;45.558;10.070;2024-02-04T04:12:22;100654.66;;;5.97;99.13
63739;BME280;68816;45.558;10.070;2024-02-04T04:14:47;100655.88;;;5.94;99.37
63739;BME280;68816;45.558;10.070;2024-02-04T04:17:13;100655.13;;;5.86;99.45
63739;BME280;68816;45.558;10.070;2024-02-04T04:19:39;100661.94;;;5.90;98.94
63739;BME280;68816;45.558;10.070;2024-02-04T04:22:04;100662.97;;;5.74;99.99
63739;BME280;68816;45.558;10.070;2024-02-04T04:24:30;100666.56;;;5.74;99.70
63739;BME280;68816;45.558;10.070;2024-02-04T04:26:56;100665.81;;;5.66;100.00
63739;BME280;68816;45.558;10.070;2024-02-04T04:29:22;100659.66;;;5.78;100.00
63739;BME280;68816;45.558;10.070;2024-02-04T04:31:47;100652.22;;;5.87;100.00
63739;BME280;68816;45.558;10.070;2024-02-04T04:34:13;100641.22;;;5.72;100.00
63739;BME280;68816;45.558;10.070;2024-02-04T04:36:39;100643.50;;;5.98;99.27
63739;BME280;68816;45.558;10.070;2024-02-04T04:39:05;100646.59;;;5.95;98.05
63739;BME280;68816;45.558;10.070;2024-02-04T04:41:31;100652.94;;;5.81;99.06
63739;BME280;68816;45.558;10.070;2024-02-04T04:43:57;100645.97;;;5.93;98.20
63739;BME280;68816;45.558;10.070;2024-02-04T04:46:22;100644.06;;;5.94;97.94
63739;BME280;68816;45.558;10.070;2024-02-04T04:48:48;100662.56;;;5.77;97.54
63739;BME280;68816;45.558;10.070;2024-02-04T04:51:13;100664.00;;;5.73;99.16
63739;BME280;68816;45.558;10.070;2024-02-04T04:53:39;100650.09;;;5.74;99.78
63739;BME280;68816;45.558;10.070;2024-02-04T04:56:05;100661.38;;;5.65;100.00
63739;BME280;68816;45.558;10.070;2024-02-04T04:58:31;100662.50;;;5.56;100.00
63739;BME280;68816;45.558;10.070;2024-02-04T05:00:57;100655.91;;;5.65;100.00
63739;BME280;68816;45.558;10.070;2024-02-04T05:03:23;100652.56;;;5.69;100.00
63739;BME280;68816;45.558;10.070;2024-02-04T05:05:48;100659.69;;;5.64;100.00
63739;BME280;68816;45.558;10.070;2024-02-04T05:08:14;100676.88;;;5.58;100.00
63739;BME280;68816;45.558;10.070;2024-02-04T05:10:41;100667.63;;;5.59;100.00
63739;BME280;68816;45.558;10.070;2024-02-04T05:13:07;100673.66;;;5.54;100.00
63739;BME280;68816;45.558;10.070;2024-02-04T05:15:33;100681.97;;;5.61;100.00
63739;BME280;68816;45.558;10.070;2024-02-04T05:18:00;100678.88;;;5.64;100.00
63739;BME280;68816;45.558;10.070;2024-02-04T05:20:25;100662.78;;;5.46;100.00
63739;BME280;68816;45.558;10.070;2024-02-04T05:22:51;100655.78;;;5.58;100.00
63739;BME280;68816;45.558;10.070;2024-02-04T05:25:17;100657.69;;;5.58;100.00
63739;BME280;68816;45.558;10.070;2024-02-04T05:27:42;100659.69;;;5.64;100.00
63739;BME280;68816;45.558;10.070;2024-02-04T05:30:08;100661.06;;;5.60;100.00
63739;BME280;68816;45.558;10.070;2024-02-04T05:32:35;100663.16;;;5.58;100.00
63739;BME280;68816;45.558;10.070;2024-02-04T05:35:01;100670.81;;;5.48;100.00
63739;BME280;68816;45.558;10.070;2024-02-04T05:37:26;100666.38;;;5.61;100.00
63739;BME280;68816;45.558;10.070;2024-02-04T05:39:52;100668.94;;;5.63;100.00
63739;BME280;68816;45.558;10.070;2024-02-04T05:42:17;100681.31;;;5.44;100.00
63739;BME280;68816;45.558;10.070;2024-02-04T05:44:43;100689.16;;;5.32;100.00
63739;BME280;68816;45.558;10.070;2024-02-04T05:47:09;100677.91;;;5.42;100.00
63739;BME280;68816;45.558;10.070;2024-02-04T05:49:34;100680.16;;;5.38;100.00
63739;BME280;68816;45.558;10.070;2024-02-04T05:52:00;100693.13;;;5.45;100.00
63739;BME280;68816;45.558;10.070;2024-02-04T05:54:26;100699.66;;;5.44;100.00
63739;BME280;68816;45.558;10.070;2024-02-04T05:56:51;100691.81;;;5.41;100.00
63739;BME280;68816;45.558;10.070;2024-02-04T05:59:17;100690.84;;;5.33;100.00
63739;BME280;68816;45.558;10.070;2024-02-04T06:01:42;100694.38;;;5.57;100.00
63739;BME280;68816;45.558;10.070;2024-02-04T06:04:08;100696.72;;;5.60;100.00
63739;BME280;68816;45.558;10.070;2024-02-04T06:06:34;100697.97;;;5.57;100.00
63739;BME280;68816;45.558;10.070;2024-02-04T06:09:00;100703.34;;;5.51;100.00
63739;BME280;68816;45.558;10.070;2024-02-04T06:11:26;100705.34;;;5.57;100.00
63739;BME280;68816;45.558;10.070;2024-02-04T06:13:51;100703.81;;;5.40;100.00
63739;BME280;68816;45.558;10.070;2024-02-04T06:16:17;100709.13;;;5.41;100.00
63739;BME280;68816;45.558;10.070;2024-02-04T06:18:43;100705.53;;;5.41;100.00
63739;BME280;68816;45.558;10.070;2024-02-04T06:21:08;100695.88;;;5.30;100.00
63739;BME280;68816;45.558;10.070;2024-02-04T06:23:34;100711.25;;;5.31;100.00
63739;BME280;68816;45.558;10.070;2024-02-04T06:26:00;100717.47;;;5.10;100.00
63739;BME280;68816;45.558;10.070;2024-02-04T06:28:26;100719.16;;;5.11;100.00
63739;BME280;68816;45.558;10.070;2024-02-04T06:30:51;100722.50;;;5.21;100.00
63739;BME280;68816;45.558;10.070;2024-02-04T06:33:17;100734.91;;;5.32;100.00
63739;BME280;68816;45.558;10.070;2024-02-04T06:35:43;100739.31;;;5.18;100.00
63739;BME280;68816;45.558;10.070;2024-02-04T06:38:08;100724.22;;;5.22;100.00
63739;BME280;68816;45.558;10.070;2024-02-04T06:40:34;100728.22;;;5.34;100.00
63739;BME280;68816;45.558;10.070;2024-02-04T06:42:59;100729.13;;;5.27;100.00
63739;BME280;68816;45.558;10.070;2024-02-04T06:45:25;100727.50;;;5.18;100.00
63739;BME280;68816;45.558;10.070;2024-02-04T06:47:51;100735.81;;;5.24;100.00
63739;BME280;68816;45.558;10.070;2024-02-04T06:50:16;100747.75;;;5.31;100.00
63739;BME280;68816;45.558;10.070;2024-02-04T06:52:45;100746.31;;;5.21;100.00
63739;BME280;68816;45.558;10.070;2024-02-04T06:55:11;100758.41;;;5.12;100.00
63739;BME280;68816;45.558;10.070;2024-02-04T06:57:37;100746.28;;;5.44;100.00
63739;BME280;68816;45.558;10.070;2024-02-04T07:00:03;100746.72;;;5.32;100.00
63739;BME280;68816;45.558;10.070;2024-02-04T07:02:36;100752.63;;;5.44;100.00
63739;BME280;68816;45.558;10.070;2024-02-04T07:05:01;100758.97;;;5.45;100.00
63739;BME280;68816;45.558;10.070;2024-02-04T07:07:27;100770.50;;;5.55;100.00
63739;BME280;68816;45.558;10.070;2024-02-04T07:09:53;100766.88;;;5.40;100.00
63739;BME280;68816;45.558;10.070;2024-02-04T07:12:18;100770.78;;;5.45;100.00
63739;BME280;68816;45.558;10.070;2024-02-04T07:14:44;100790.16;;;5.44;100.00
63739;BME280;68816;45.558;10.070;2024-02-04T07:17:10;100788.38;;;5.51;100.00
63739;BME280;68816;45.558;10.070;2024-02-04T07:19:38;100790.31;;;5.65;100.00
63739;BME280;68816;45.558;10.070;2024-02-04T07:22:04;100787.59;;;5.65;100.00
63739;BME280;68816;45.558;10.070;2024-02-04T07:24:29;100797.09;;;5.54;100.00
63739;BME280;68816;45.558;10.070;2024-02-04T07:26:55;100799.88;;;5.69;100.00
63739;BME280;68816;45.558;10.070;2024-02-04T07:29:21;100806.06;;;5.86;100.00
63739;BME280;68816;45.558;10.070;2024-02-04T07:31:46;100818.06;;;5.85;100.00
63739;BME280;68816;45.558;10.070;2024-02-04T07:34:12;100814.91;;;5.96;100.00
63739;BME280;68816;45.558;10.070;2024-02-04T07:36:38;100810.94;;;5.98;100.00
63739;BME280;68816;45.558;10.070;2024-02-04T07:39:03;100810.84;;;6.06;100.00
63739;BME280;68816;45.558;10.070;2024-02-04T07:41:31;100812.25;;;6.02;100.00
63739;BME280;68816;45.558;10.070;2024-02-04T07:43:57;100815.22;;;6.15;100.00
63739;BME280;68816;45.558;10.070;2024-02-04T07:46:23;100819.44;;;6.18;100.00
63739;BME280;68816;45.558;10.070;2024-02-04T07:48:48;100811.31;;;6.25;100.00
63739;BME280;68816;45.558;10.070;2024-02-04T07:51:15;100817.66;;;6.25;100.00
63739;BME280;68816;45.558;10.070;2024-02-04T07:53:40;100818.91;;;6.37;100.00
63739;BME280;68816;45.558;10.070;2024-02-04T07:56:06;100813.41;;;6.52;100.00
63739;BME280;68816;45.558;10.070;2024-02-04T07:58:32;100820.50;;;6.61;100.00
63739;BME280;68816;45.558;10.070;2024-02-04T08:00:59;100823.69;;;6.79;100.00
63739;BME280;68816;45.558;10.070;2024-02-04T08:03:25;100835.63;;;6.86;100.00
63739;BME280;68816;45.558;10.070;2024-02-04T08:13:52;100836.22;;;7.39;100.00
63739;BME280;68816;45.558;10.070;2024-02-04T08:16:43;100842.50;;;7.54;100.00
63739;BME280;68816;45.558;10.070;2024-02-04T08:19:09;100840.84;;;7.60;100.00
63739;BME280;68816;45.558;10.070;2024-02-04T08:21:34;100849.53;;;7.63;100.00
63739;BME280;68816;45.558;10.070;2024-02-04T08:24:00;100863.28;;;7.57;100.00
63739;BME280;68816;45.558;10.070;2024-02-04T08:26:26;100863.00;;;7.73;100.00
63739;BME280;68816;45.558;10.070;2024-02-04T08:28:52;100858.19;;;7.81;100.00
63739;BME280;68816;45.558;10.070;2024-02-04T08:31:17;100870.13;;;7.89;100.00
63739;BME280;68816;45.558;10.070;2024-02-04T08:33:43;100853.91;;;8.00;99.54
63739;BME280;68816;45.558;10.070;2024-02-04T08:36:08;100865.94;;;8.20;99.67
63739;BME280;68816;45.558;10.070;2024-02-04T08:38:36;100871.16;;;8.37;98.21
63739;BME280;68816;45.558;10.070;2024-02-04T08:41:03;100874.41;;;8.47;97.90
63739;BME280;68816;45.558;10.070;2024-02-04T08:43:29;100878.91;;;8.54;98.15
63739;BME280;68816;45.558;10.070;2024-02-04T08:45:55;100867.72;;;8.62;97.48
63739;BME280;68816;45.558;10.070;2024-02-04T08:48:21;100879.41;;;8.64;98.10
63739;BME280;68816;45.558;10.070;2024-02-04T08:50:46;100880.06;;;8.67;96.70
63739;BME280;68816;45.558;10.070;2024-02-04T08:53:12;100888.53;;;8.65;98.01
63739;BME280;68816;45.558;10.070;2024-02-04T08:55:38;100887.91;;;8.70;96.33
63739;BME280;68816;45.558;10.070;2024-02-04T08:58:03;100882.84;;;8.73;96.55
63739;BME280;68816;45.558;10.070;2024-02-04T09:00:29;100880.75;;;8.82;95.91
63739;BME280;68816;45.558;10.070;2024-02-04T09:02:55;100885.00;;;8.78;96.30
63739;BME280;68816;45.558;10.070;2024-02-04T09:05:21;100887.56;;;8.86;95.50
63739;BME280;68816;45.558;10.070;2024-02-04T09:08:09;100881.66;;;8.89;95.41
63739;BME280;68816;45.558;10.070;2024-02-04T09:10:36;100885.06;;;8.97;93.45
63739;BME280;68816;45.558;10.070;2024-02-04T09:13:02;100882.13;;;8.99;94.14
63739;BME280;68816;45.558;10.070;2024-02-04T09:15:27;100876.38;;;8.94;95.15
63739;BME280;68816;45.558;10.070;2024-02-04T09:17:53;100870.00;;;8.93;95.12
63739;BME280;68816;45.558;10.070;2024-02-04T09:20:19;100870.63;;;8.89;95.17
63739;BME280;68816;45.558;10.070;2024-02-04T09:22:44;100873.44;;;9.02;94.59
63739;BME280;68816;45.558;10.070;2024-02-04T09:25:10;100871.00;;;9.33;92.28
63739;BME280;68816;45.558;10.070;2024-02-04T09:27:36;100879.34;;;9.60;90.51
63739;BME280;68816;45.558;10.070;2024-02-04T09:30:02;100869.59;;;9.90;88.54
63739;BME280;68816;45.558;10.070;2024-02-04T09:32:28;100867.50;;;10.05;86.80
63739;BME280;68816;45.558;10.070;2024-02-04T09:34:54;100876.03;;;10.30;85.85
63739;BME280;68816;45.558;10.070;2024-02-04T09:37:20;100883.41;;;10.49;84.98
63739;BME280;68816;45.558;10.070;2024-02-04T09:39:47;100869.19;;;10.46;84.20
63739;BME280;68816;45.558;10.070;2024-02-04T09:42:19;100865.97;;;10.55;85.19
63739;BME280;68816;45.558;10.070;2024-02-04T09:44:47;100875.94;;;10.69;83.72
63739;BME280;68816;45.558;10.070;2024-02-04T09:47:13;100872.91;;;10.84;83.45
63739;BME280;68816;45.558;10.070;2024-02-04T09:49:39;100869.03;;;10.98;82.48
63739;BME280;68816;45.558;10.070;2024-02-04T09:52:08;100867.50;;;11.09;81.57
63739;BME280;68816;45.558;10.070;2024-02-04T09:54:45;100862.81;;;11.09;80.27
63739;BME280;68816;45.558;10.070;2024-02-04T09:57:13;100856.66;;;11.01;79.90
63739;BME280;68816;45.558;10.070;2024-02-04T09:59:39;100854.69;;;11.15;80.97
63739;BME280;68816;45.558;10.070;2024-02-04T10:02:05;100861.75;;;11.10;80.55
63739;BME280;68816;45.558;10.070;2024-02-04T10:04:31;100854.88;;;11.20;79.38
63739;BME280;68816;45.558;10.070;2024-02-04T10:06:57;100865.81;;;11.01;80.87
63739;BME280;68816;45.558;10.070;2024-02-04T10:09:22;100860.94;;;10.97;79.74
63739;BME280;68816;45.558;10.070;2024-02-04T10:11:48;100851.09;;;11.07;79.39
63739;BME280;68816;45.558;10.070;2024-02-04T10:14:15;100849.63;;;11.11;78.99
63739;BME280;68816;45.558;10.070;2024-02-04T10:16:41;100851.50;;;11.18;79.77
63739;BME280;68816;45.558;10.070;2024-02-04T10:19:07;100850.91;;;11.47;78.63
63739;BME280;68816;45.558;10.070;2024-02-04T10:21:32;100846.25;;;11.72;76.59
63739;BME280;68816;45.558;10.070;2024-02-04T10:23:58;100844.84;;;11.63;78.37
63739;BME280;68816;45.558;10.070;2024-02-04T10:26:28;100845.94;;;11.93;76.35
63739;BME280;68816;45.558;10.070;2024-02-04T10:28:59;100842.78;;;11.83;75.40
63739;BME280;68816;45.558;10.070;2024-02-04T10:31:26;100841.56;;;11.79;75.49
63739;BME280;68816;45.558;10.070;2024-02-04T10:33:52;100840.31;;;11.75;75.25
63739;BME280;68816;45.558;10.070;2024-02-04T10:36:18;100837.94;;;11.72;76.64
63739;BME280;68816;45.558;10.070;2024-02-04T10:38:43;100828.41;;;12.00;75.95
63739;BME280;68816;45.558;10.070;2024-02-04T10:41:14;100831.06;;;12.31;74.29
63739;BME280;68816;45.558;10.070;2024-02-04T10:43:42;100828.19;;;12.44;74.04
63739;BME280;68816;45.558;10.070;2024-02-04T10:46:20;100821.53;;;12.27;74.66
63739;BME280;68816;45.558;10.070;2024-02-04T10:49:00;100820.94;;;12.43;74.69
63739;BME280;68816;45.558;10.070;2024-02-04T10:51:31;100818.31;;;12.48;73.61
63739;BME280;68816;45.558;10.070;2024-02-04T10:53:58;100812.31;;;12.51;73.57
63739;BME280;68816;45.558;10.070;2024-02-04T10:56:33;100810.63;;;12.68;72.80
63739;BME280;68816;45.558;10.070;2024-02-04T10:59:01;100796.75;;;12.87;72.92
63739;BME280;68816;45.558;10.070;2024-02-04T11:01:28;100798.78;;;13.09;71.88
63739;BME280;68816;45.558;10.070;2024-02-04T11:03:54;100787.75;;;13.21;71.23
63739;BME280;68816;45.558;10.070;2024-02-04T11:06:23;100785.88;;;13.33;71.79
63739;BME280;68816;45.558;10.070;2024-02-04T11:08:50;100780.72;;;13.48;70.66
63739;BME280;68816;45.558;10.070;2024-02-04T11:11:18;100784.72;;;13.52;69.52
63739;BME280;68816;45.558;10.070;2024-02-04T11:13:45;100776.34;;;13.41;69.92
63739;BME280;68816;45.558;10.070;2024-02-04T11:19:45;100771.94;;;13.63;70.53
63739;BME280;68816;45.558;10.070;2024-02-04T11:22:32;100768.59;;;13.73;69.83
63739;BME280;68816;45.558;10.070;2024-02-04T11:27:45;100762.56;;;13.99;70.14
63739;BME280;68816;45.558;10.070;2024-02-04T11:30:11;100752.16;;;14.06;69.32
63739;BME280;68816;45.558;10.070;2024-02-04T11:32:37;100753.91;;;15.10;65.14
63739;BME280;68816;45.558;10.070;2024-02-04T11:35:03;100745.91;;;16.26;61.08
63739;BME280;68816;45.558;10.070;2024-02-04T11:37:33;100738.16;;;17.15;58.17
63739;BME280;68816;45.558;10.070;2024-02-04T11:39:59;100736.78;;;17.71;55.44
63739;BME280;68816;45.558;10.070;2024-02-04T11:42:25;100724.53;;;18.14;54.40
63739;BME280;68816;45.558;10.070;2024-02-04T11:45:06;100724.38;;;18.78;52.09
63739;BME280;68816;45.558;10.070;2024-02-04T11:47:33;100721.75;;;18.56;51.71
63739;BME280;68816;45.558;10.070;2024-02-04T11:50:00;100707.41;;;19.25;50.15
63739;BME280;68816;45.558;10.070;2024-02-04T11:52:29;100694.81;;;19.33;49.87
63739;BME280;68816;45.558;10.070;2024-02-04T11:54:55;100697.97;;;19.61;49.58
63739;BME280;68816;45.558;10.070;2024-02-04T11:57:23;100688.84;;;20.61;47.06
63739;BME280;68816;45.558;10.070;2024-02-04T11:59:49;100683.28;;;20.25;46.72
63739;BME280;68816;45.558;10.070;2024-02-04T12:02:16;100677.81;;;20.69;45.64
63739;BME280;68816;45.558;10.070;2024-02-04T12:04:46;100681.34;;;20.26;46.80
63739;BME280;68816;45.558;10.070;2024-02-04T12:07:16;100674.13;;;20.84;45.88
63739;BME280;68816;45.558;10.070;2024-02-04T12:09:43;100673.69;;;21.06;44.88
63739;BME280;68816;45.558;10.070;2024-02-04T12:12:09;100673.34;;;20.63;45.70
63739;BME280;68816;45.558;10.070;2024-02-04T12:14:36;100667.78;;;20.53;45.15
63739;BME280;68816;45.558;10.070;2024-02-04T12:17:10;100660.91;;;20.79;45.17
63739;BME280;68816;45.558;10.070;2024-02-04T12:19:36;100654.94;;;20.12;46.88
63739;BME280;68816;45.558;10.070;2024-02-04T12:22:02;100657.56;;;21.26;44.57
63739;BME280;68816;45.558;10.070;2024-02-04T12:24:37;100645.88;;;21.48;43.60
63739;BME280;68816;45.558;10.070;2024-02-04T12:27:04;100648.28;;;21.26;44.09
63739;BME280;68816;45.558;10.070;2024-02-04T12:29:31;100651.44;;;22.16;42.08
63739;BME280;68816;45.558;10.070;2024-02-04T12:32:01;100644.03;;;21.62;42.96
63739;BME280;68816;45.558;10.070;2024-02-04T12:34:28;100641.69;;;21.41;42.93
63739;BME280;68816;45.558;10.070;2024-02-04T12:37:00;100643.41;;;22.28;41.70
63739;BME280;68816;45.558;10.070;2024-02-04T12:39:27;100639.59;;;23.42;39.16
63739;BME280;68816;45.558;10.070;2024-02-04T12:41:53;100633.22;;;24.33;37.87
63739;BME280;68816;45.558;10.070;2024-02-04T12:44:20;100632.25;;;23.78;37.47
63739;BME280;68816;45.558;10.070;2024-02-04T12:46:45;100630.66;;;24.18;37.16
63739;BME280;68816;45.558;10.070;2024-02-04T12:49:19;100631.22;;;24.34;36.80
63739;BME280;68816;45.558;10.070;2024-02-04T12:51:46;100625.84;;;24.73;36.02
63739;BME280;68816;45.558;10.070;2024-02-04T12:54:12;100626.03;;;23.44;37.90
63739;BME280;68816;45.558;10.070;2024-02-04T12:56:46;100622.63;;;23.47;38.13
63739;BME280;68816;45.558;10.070;2024-02-04T12:59:24;100622.53;;;23.52;37.83
63739;BME280;68816;45.558;10.070;2024-02-04T13:01:57;100618.66;;;22.91;38.73
63739;BME280;68816;45.558;10.070;2024-02-04T13:04:23;100601.03;;;23.18;38.44
63739;BME280;68816;45.558;10.070;2024-02-04T13:06:50;100598.19;;;23.18;37.73